Data for 08/15/2016

Time Sea-Level Adjusted Pressure Absolute Pressure Temperature Relative Humidity Dew Point   
(mb) (inHg) (mb) (inHg) (C) (F) (%) (C) (F)
00:05 1021 30.15 850 25.1 20.3 68.5 28 1.6 34.9
00:10 1021 30.15 850 25.1 19.9 67.7 29 1.3 34.4
00:15 1021 30.15 850 25.1 19.6 67.3 29 1.3 34.4
00:20 1021 30.15 850 25.1 19.3 66.7 30 1.3 34.4
00:25 1021 30.15 850 25.1 19.1 66.3 30 1.4 34.5
00:30 1021 30.15 850 25.1 18.8 65.8 31 1.3 34.3
00:35 1021 30.15 850 25.1 18.8 65.9 31 1.4 34.5
00:40 1021 30.15 850 25.1 18.4 65.2 34 2.3 36.1
00:45 1021 30.15 850 25.1 18 64.4 32 1.4 34.5
00:50 1021 30.15 850 25.1 17.7 63.9 32 1.1 34
00:55 1021 30.15 850 25.1 17.8 64.1 32 1.2 34.2
01:00 1021 30.15 850 25.1 18 64.4 33 1.6 35
01:05 1021 30.15 850 25.1 18 64.4 32 1.4 34.5
01:10 1021 30.15 850 25.1 17.7 63.9 33 1.4 34.5
01:15 1021 30.15 850 25.1 17.6 63.6 34 1.6 35
01:20 1021 30.15 850 25.1 17.4 63.3 34 1.5 34.7
01:25 1021 30.15 850 25.1 17.5 63.4 34 1.6 34.8
01:30 1021 30.15 850 25.1 17.6 63.6 34 1.8 35.2
01:35 1021 30.15 850 25.1 17.6 63.7 34 1.7 35.1
01:40 1021 30.15 850 25.1 17.6 63.6 35 1.9 35.5
01:45 1021 30.15 850 25.1 17.4 63.3 36 2.3 36.1
01:50 1021 30.15 850 25.1 17.4 63.4 35 2 35.6
01:55 1021 30.15 850 25.1 17.7 63.8 34 1.9 35.4
02:00 1021 30.15 850 25.1 17.8 64 35 2.1 35.8
02:05 1021 30.15 850 25.1 17.7 63.9 34 2 35.5
02:10 1021 30.15 850 25.1 17.7 63.9 36 2.6 36.7
02:15 1021 30.15 850 25.1 17.4 63.3 36 2.4 36.2
02:20 1021 30.15 850 25.1 17.1 62.8 38 2.9 37.3
02:25 1021 30.15 850 25.1 16.7 62 42 3.7 38.6
02:30 1021 30.15 850 25.1 16.5 61.7 40 2.8 37.1
02:35 1021 30.15 850 25.1 16.4 61.5 40 2.9 37.3
02:40 1021 30.15 850 25.1 16.3 61.4 42 3.6 38.4
02:45 1021 30.15 850 25.1 16.2 61.2 41 3 37.4
02:50 1021 30.15 850 25.1 16.1 60.9 42 3.1 37.6
02:55 1021 30.15 850 25.1 16 60.8 42 3.2 37.7
03:00 1021 30.15 850 25.1 16 60.8 41 3 37.4
03:05 1021 30.15 850 25.1 16.3 61.3 39 2.4 36.4
03:10 1021 30.15 850 25.1 16.4 61.5 39 2.7 36.8
03:15 1021 30.15 850 25.1 16.1 61 40 2.8 37
03:20 1021 30.15 850 25.1 15.7 60.3 41 2.7 36.9
03:25 1021 30.15 850 25.1 15.3 59.6 45 3.5 38.4
03:30 1021 30.15 850 25.1 15.1 59.2 42 2.3 36.2
03:35 1021 30.15 850 25.1 15.2 59.3 41 2.1 35.8
03:40 1021 30.15 850 25.1 15.1 59.2 42 2.3 36.2
03:45 1021 30.15 850 25.1 15.2 59.3 41 1.9 35.5
03:50 1021 30.15 851 25.13 15.4 59.7 40 1.8 35.3
03:55 1021 30.15 851 25.13 15.3 59.6 40 2 35.7
04:00 1021 30.15 851 25.13 15.2 59.3 40 1.9 35.4
04:05 1021 30.15 851 25.13 15.3 59.6 41 2.2 36
04:10 1021 30.15 851 25.13 15.1 59.2 42 2.3 36.1
04:15 1021 30.15 851 25.13 15.1 59.2 41 1.9 35.5
04:20 1021 30.15 851 25.13 15.3 59.6 41 2.2 35.9
04:25 1021 30.15 851 25.13 15.6 60 43 3.1 37.6
04:30 1021 30.15 851 25.13 15.5 60 41 2.4 36.3
04:35 1021 30.15 851 25.13 15.7 60.3 41 2.5 36.4
04:40 1021 30.15 851 25.13 15.8 60.4 40 2.2 36
04:45 1021 30.15 851 25.13 16.1 60.9 40 2.5 36.5
04:50 1021 30.15 851 25.13 16 60.8 43 3.6 38.4
04:55 1021 30.15 851 25.13 15.8 60.4 41 2.5 36.6
05:00 1021 30.15 851 25.13 15.5 59.9 40 2.1 35.9
05:05 1022 30.18 851 25.13 15.4 59.7 41 2.3 36.2
05:10 1022 30.18 851 25.13 14.9 58.8 46 3.4 38.1
05:15 1022 30.18 851 25.13 14.4 57.9 42 1.8 35.3
05:20 1021 30.15 851 25.13 14.5 58.1 41 1.7 35
05:25 1022 30.18 851 25.13 14.9 58.8 41 2 35.5
05:30 1022 30.18 851 25.13 14.7 58.4 42 2 35.6
05:35 1022 30.18 851 25.13 14.7 58.4 42 2 35.7
05:40 1022 30.18 851 25.13 15.1 59.3 42 2.4 36.3
05:45 1022 30.18 851 25.13 15.2 59.4 42 2.4 36.4
05:50 1022 30.18 851 25.13 15.2 59.4 42 2.6 36.7
05:55 1022 30.18 851 25.13 15.2 59.3 43 2.7 36.9
06:00 1022 30.18 851 25.13 15.1 59.2 43 2.7 36.9
06:05 1022 30.18 851 25.13 15 58.9 43 2.6 36.7
06:10 1022 30.18 851 25.13 15.1 59.3 42 2.5 36.6
06:15 1022 30.18 851 25.13 15 58.9 43 2.4 36.4
06:20 1022 30.18 851 25.13 15.1 59.2 42 2.6 36.6
06:25 1022 30.18 851 25.13 15.4 59.7 42 2.5 36.5
06:30 1022 30.18 851 25.13 15.7 60.2 40 2.4 36.3
06:35 1022 30.18 851 25.13 15.5 60 41 2.4 36.3
06:40 1022 30.18 851 25.13 15.8 60.4 42 2.9 37.2
06:45 1022 30.18 851 25.13 16.3 61.3 40 2.8 37.1
06:50 1022 30.18 851 25.13 16.6 62 40 3.1 37.6
06:55 1022 30.18 851 25.13 16.8 62.2 39 3 37.3
07:00 1022 30.18 852 25.16 17 62.7 40 3.4 38.2
07:05 1022 30.18 852 25.16 17.2 63 40 3.6 38.6
07:10 1022 30.18 852 25.16 17.3 63.2 39 3.5 38.3
07:15 1022 30.18 852 25.16 18 64.4 38 3.5 38.3
07:20 1022 30.18 852 25.16 18.6 65.5 37 3.6 38.5
07:25 1022 30.18 852 25.16 19 66.1 36 3.8 38.9
07:30 1022 30.18 852 25.16 19.1 66.4 35 3.5 38.4
07:35 1022 30.18 852 25.16 19.2 66.6 37 4.4 39.9
07:40 1022 30.18 852 25.16 19.2 66.5 36 3.8 38.8
07:45 1022 30.18 852 25.16 19.2 66.6 38 4.8 40.7
07:50 1022 30.18 852 25.16 19.7 67.4 33 3.2 37.8
07:55 1022 30.18 852 25.16 19.8 67.6 33 3.1 37.5
08:00 1022 30.18 852 25.16 20.3 68.6 30 2.5 36.4
08:05 1023 30.21 852 25.16 20.8 69.4 30 2.8 37.1
08:10 1023 30.21 852 25.16 20.5 68.9 31 2.8 37.1
08:15 1023 30.21 852 25.16 20.8 69.4 30 2.9 37.3
08:20 1023 30.21 852 25.16 21.5 70.7 29 3.1 37.7
08:25 1023 30.21 852 25.16 21.8 71.3 31 4.2 39.5
08:30 1023 30.21 852 25.16 21.3 70.3 32 4.2 39.6
08:35 1023 30.21 852 25.16 21.6 70.8 31 4 39.3
08:40 1023 30.21 852 25.16 21.8 71.3 32 4.4 40
08:45 1023 30.21 852 25.16 21.2 70.2 31 3.8 38.8
08:50 1023 30.21 852 25.16 21.7 71 31 4.1 39.4
08:55 1023 30.21 852 25.16 21.3 70.3 31 3.5 38.3
09:00 1023 30.21 852 25.16 21.8 71.2 31 4.2 39.6
09:05 1023 30.21 852 25.16 21.8 71.2 31 4.2 39.5
09:10 1023 30.21 852 25.16 21.6 70.8 30 3.6 38.5
09:15 1023 30.21 852 25.16 22.3 72.1 29 3.7 38.7
09:20 1023 30.21 852 25.16 22.7 72.8 28 3.3 37.9
09:25 1023 30.21 852 25.16 22.5 72.5 30 4.3 39.7
09:30 1023 30.21 852 25.16 23.4 74.1 27 3.8 38.8
09:35 1022 30.18 852 25.16 23.5 74.2 26 3.3 38
09:40 1022 30.18 852 25.16 23.5 74.3 27 3.6 38.4
09:45 1022 30.18 852 25.16 23.5 74.4 26 3.2 37.7
09:50 1023 30.21 852 25.16 23.5 74.4 26 3.3 37.9
09:55 1023 30.21 852 25.16 23.7 74.7 26 3.2 37.7
10:00 1023 30.21 852 25.16 24.3 75.8 25 3 37.4
10:05 1023 30.21 852 25.16 24.6 76.4 25 3.3 38
10:10 1022 30.18 852 25.16 24.7 76.5 24 3 37.4
10:15 1022 30.18 852 25.16 24.5 76.2 25 3.6 38.4
10:20 1022 30.18 852 25.16 23.7 74.7 26 3.4 38.1
10:25 1022 30.18 852 25.16 24.1 75.4 25 2.9 37.2
10:30 1022 30.18 852 25.16 25.1 77.1 24 3.3 37.9
10:35 1022 30.18 852 25.16 25.5 77.8 22 2.6 36.7
10:40 1022 30.18 852 25.16 25.3 77.6 22 2.6 36.7
10:45 1022 30.18 852 25.16 25.7 78.3 22 3 37.4
10:50 1022 30.18 852 25.16 25.8 78.4 24 3.7 38.6
10:55 1022 30.18 852 25.16 25.8 78.4 23 3.3 38
11:00 1022 30.18 851 25.13 26.2 79.1 21 2.4 36.2
11:05 1022 30.18 851 25.13 26.2 79.2 23 3.5 38.3
11:10 1022 30.18 851 25.13 26.3 79.3 22 3.3 38
11:15 1022 30.18 851 25.13 26.2 79.2 21 2.4 36.3
11:20 1022 30.18 851 25.13 26.3 79.3 20 2 35.6
11:25 1022 30.18 851 25.13 26.6 79.8 22 3.2 37.7
11:30 1022 30.18 851 25.13 26.5 79.6 21 2.7 36.9
11:35 1022 30.18 851 25.13 27 80.5 20 2.5 36.5
11:40 1022 30.18 851 25.13 26.8 80.2 19 1.7 35.1
11:45 1022 30.18 851 25.13 27.3 81.1 19 1.8 35.2
11:50 1022 30.18 851 25.13 27.6 81.7 19 2.4 36.3
11:55 1022 30.18 851 25.13 28 82.4 19 2.8 37
12:00 1022 30.18 851 25.13 27.9 82.1 18 1.8 35.2
12:05 1022 30.18 851 25.13 27.7 81.9 18 1.8 35.2
12:10 1022 30.18 851 25.13 28.1 82.7 17 1 33.7
12:15 1022 30.18 851 25.13 28.3 83 18 1.8 35.3
12:20 1022 30.18 851 25.13 28.4 83.2 17 1.2 34.2
12:25 1022 30.18 851 25.13 28.6 83.6 17 1.5 34.6
12:30 1022 30.18 851 25.13 28.8 83.9 15 0.1 32.2
12:35 1022 30.18 851 25.13 28.4 83.1 15 -0.4 31.3
12:40 1022 30.18 851 25.13 28.4 83.1 15 -0.4 31.3
12:45 1022 30.18 851 25.13 28.3 83 15 -0.7 30.8
12:50 1022 30.18 851 25.13 28.6 83.6 15 -0.6 30.9
12:55 1022 30.18 851 25.13 28.4 83 14 -0.9 30.3
13:00 1022 30.18 851 25.13 28.7 83.6 14 -0.9 30.4
13:05 1022 30.18 851 25.13 28.6 83.5 15 -0.3 31.5
13:10 1022 30.18 851 25.13 28.6 83.5 14 -1.6 29.1
13:15 1022 30.18 851 25.13 29 84.3 14 -1.3 29.7
13:20 1022 30.18 851 25.13 29.7 85.4 14 -0.8 30.5
13:25 1021 30.15 851 25.13 29.5 85 13 -1.4 29.5
13:30 1021 30.15 851 25.13 29.5 85.2 13 -1.1 30.1
13:35 1021 30.15 851 25.13 29.1 84.5 13 -1.3 29.7
13:40 1021 30.15 851 25.13 29.3 84.7 13 -1.7 28.9
13:45 1021 30.15 851 25.13 29.4 84.9 14 -1 30.2
13:50 1021 30.15 851 25.13 29.4 84.8 13 -1.5 29.4
13:55 1021 30.15 850 25.1 29.8 85.6 13 -1.5 29.3
14:00 1021 30.15 850 25.1 30.1 86.2 12 -1.8 28.8
14:05 1021 30.15 850 25.1 29.5 85.1 13 -1.4 29.5
14:10 1021 30.15 850 25.1 30 85.9 13 -1.6 29.1
14:15 1021 30.15 850 25.1 30.6 87.1 13 -0.6 30.9
14:20 1021 30.15 850 25.1 30.1 86.1 13 -0.7 30.8
14:25 1021 30.15 850 25.1 29.8 85.6 14 -0.4 31.3
14:30 1021 30.15 850 25.1 29.9 85.9 14 -0.2 31.7
14:35 1021 30.15 850 25.1 29.7 85.5 14 -0.5 31
14:40 1021 30.15 850 25.1 30.3 86.5 14 0.3 32.6
14:45 1021 30.15 850 25.1 29.9 85.8 14 -0.1 31.8
14:50 1021 30.15 850 25.1 30.1 86.1 14 -0.4 31.3
14:55 1021 30.15 850 25.1 30.1 86.1 14 -0 31.9
15:00 1021 30.15 850 25.1 30.3 86.6 13 -0.3 31.5
15:05 1021 30.15 850 25.1 30.8 87.4 15 1.1 34
15:10 1021 30.15 850 25.1 30.3 86.5 14 -0.1 31.9
15:15 1021 30.15 850 25.1 29.8 85.6 14 -0.1 31.8
15:20 1021 30.15 850 25.1 29.7 85.5 15 0.3 32.5
15:25 1021 30.15 850 25.1 29.7 85.5 14 -0.2 31.7
15:30 1021 30.15 850 25.1 30.1 86.2 14 -0 32
15:35 1021 30.15 850 25.1 30.5 86.8 14 -0.1 31.7
15:40 1021 30.15 850 25.1 30.7 87.3 12 -1.1 30.1
15:45 1021 30.15 850 25.1 30.6 87.1 13 -0.4 31.3
15:50 1021 30.15 850 25.1 30.4 86.7 13 -1 30.3
15:55 1020 30.12 850 25.1 30.4 86.7 13 -0.8 30.5
16:00 1020 30.12 850 25.1 30.5 86.9 12 -1.3 29.7
16:05 1020 30.12 850 25.1 30.3 86.5 13 -1.2 29.8
16:10 1020 30.12 850 25.1 30 86 12 -2 28.4
16:15 1020 30.12 850 25.1 30.3 86.5 12 -1.4 29.4
16:20 1020 30.12 850 25.1 30.5 86.8 12 -1.6 29.1
16:25 1020 30.12 850 25.1 30.2 86.4 12 -1.6 29.2
16:30 1020 30.12 850 25.1 30.2 86.4 12 -1.6 29.2
16:35 1020 30.12 850 25.1 30.1 86.3 12 -1.8 28.7
16:40 1020 30.12 850 25.1 30.3 86.5 12 -1.6 29.2
16:45 1020 30.12 850 25.1 30.1 86.3 13 -1.3 29.7
16:50 1020 30.12 850 25.1 30.1 86.2 13 -0.6 30.9
16:55 1020 30.12 850 25.1 30.2 86.3 12 -1.5 29.3
17:00 1020 30.12 850 25.1 29.9 85.8 13 -1.6 29.1
17:05 1020 30.12 850 25.1 29.9 85.8 13 -1.6 29.1
17:10 1020 30.12 850 25.1 30 86 12 -1.7 29
17:15 1020 30.12 850 25.1 29.7 85.5 13 -1.3 29.7
17:20 1020 30.12 850 25.1 29 84.2 13 -1.4 29.5
17:25 1020 30.12 850 25.1 29.4 84.9 13 -1.4 29.4
17:30 1020 30.12 850 25.1 29.2 84.5 13 -1.6 29.2
17:35 1020 30.12 850 25.1 29.3 84.7 13 -1.5 29.3
17:40 1020 30.12 850 25.1 29.7 85.4 13 -1.3 29.7
17:45 1020 30.12 850 25.1 30.1 86.2 13 -1.3 29.7
17:50 1020 30.12 850 25.1 29.1 84.4 13 -1.4 29.5
17:55 1020 30.12 850 25.1 28.4 83.2 14 -1.7 28.9
18:00 1020 30.12 850 25.1 28.2 82.8 14 -1.7 28.9
18:05 1020 30.12 850 25.1 28.1 82.7 14 -1.5 29.3
18:10 1020 30.12 850 25.1 28.2 82.8 14 -1.4 29.5
18:15 1020 30.12 850 25.1 28.1 82.5 14 -1.2 29.9
18:20 1020 30.12 850 25.1 28 82.5 15 -1.1 30.1
18:25 1021 30.15 850 25.1 27.9 82.2 14 -1.3 29.7
18:30 1021 30.15 850 25.1 27.8 82 14 -1.5 29.2
18:35 1021 30.15 850 25.1 27.7 81.8 15 -1.4 29.5
18:40 1021 30.15 850 25.1 27.6 81.7 15 -0.7 30.8
18:45 1021 30.15 850 25.1 27.5 81.4 15 -1.2 29.8
18:50 1021 30.15 850 25.1 27.4 81.2 15 -1.4 29.6
18:55 1021 30.15 850 25.1 27.3 81.1 15 -1.7 29
19:00 1021 30.15 850 25.1 27.2 80.9 15 -1.6 29.1
19:05 1021 30.15 850 25.1 27.1 80.8 15 -1.4 29.5
19:10 1021 30.15 850 25.1 27 80.6 15 -1.3 29.6
19:15 1021 30.15 850 25.1 26.9 80.5 15 -1.8 28.7
19:20 1021 30.15 850 25.1 26.8 80.2 15 -1.9 28.6
19:25 1021 30.15 850 25.1 26.7 80.1 15 -2.1 28.2
19:30 1021 30.15 850 25.1 26.6 79.9 15 -2.2 28
19:35 1021 30.15 850 25.1 26.5 79.7 15 -1.6 29.2
19:40 1021 30.15 850 25.1 26.1 78.9 17 -0.3 31.4
19:45 1021 30.15 850 25.1 25.8 78.4 21 2.2 36
19:50 1021 30.15 850 25.1 25.2 77.3 25 3.8 38.9
19:55 1021 30.15 851 25.13 23.9 75 28 4.5 40.2
20:00 1021 30.15 851 25.13 22.9 73.2 25 2.1 35.8
20:05 1022 30.18 851 25.13 23.3 73.9 24 2 35.7
20:10 1022 30.18 851 25.13 23.6 74.5 25 2.7 36.8
20:15 1022 30.18 851 25.13 23.4 74.2 26 3 37.4
20:20 1022 30.18 851 25.13 23.3 74 26 3.2 37.8
20:25 1022 30.18 851 25.13 23.2 73.8 27 3.5 38.3
20:30 1022 30.18 851 25.13 23.2 73.8 28 3.9 39.1
20:35 1022 30.18 851 25.13 23 73.5 29 4 39.3
20:40 1022 30.18 851 25.13 22.9 73.2 29 4.2 39.6
20:45 1022 30.18 851 25.13 22.6 72.8 30 4.2 39.5
20:50 1022 30.18 851 25.13 22.5 72.5 30 4.3 39.8
20:55 1022 30.18 851 25.13 22.4 72.3 30 4.3 39.8
21:00 1022 30.18 851 25.13 22.4 72.3 30 4.3 39.8
21:05 1022 30.18 851 25.13 22.2 72 31 4.5 40
21:10 1022 30.18 851 25.13 22.2 71.9 31 4.4 40
21:15 1022 30.18 851 25.13 22.2 72 31 4.4 39.9
21:20 1022 30.18 851 25.13 22.1 71.8 31 4.4 39.9
21:25 1022 30.18 851 25.13 22.1 71.8 31 4.5 40.1
21:30 1022 30.18 851 25.13 22.1 71.7 31 4.6 40.2
21:35 1022 30.18 851 25.13 22.1 71.7 31 4.5 40.2
21:40 1022 30.18 851 25.13 22.1 71.7 31 4.5 40.1
21:45 1022 30.18 851 25.13 22 71.7 31 4.4 40
21:50 1022 30.18 851 25.13 22 71.6 31 4.2 39.6
21:55 1022 30.18 851 25.13 22 71.5 31 4.2 39.6
22:00 1022 30.18 851 25.13 21.9 71.4 30 3.9 39
22:05 1022 30.18 851 25.13 21.9 71.5 31 4.2 39.5
22:10 1022 30.18 851 25.13 21.8 71.3 30 3.9 39
22:15 1022 30.18 851 25.13 21.9 71.3 30 3.8 38.9
22:20 1022 30.18 851 25.13 21.7 71.1 31 3.8 38.9
22:25 1022 30.18 851 25.13 21.6 70.8 31 3.8 38.8
22:30 1022 30.18 851 25.13 21.6 70.9 31 3.8 38.9
22:35 1022 30.18 851 25.13 21.5 70.8 31 3.7 38.6
22:40 1022 30.18 851 25.13 21.5 70.7 30 3.6 38.4
22:45 1022 30.18 851 25.13 21.6 70.8 30 3.5 38.2
22:50 1022 30.18 851 25.13 21.5 70.8 30 3.5 38.3
22:55 1022 30.18 851 25.13 21.5 70.7 30 3.5 38.2
23:00 1022 30.18 851 25.13 21.4 70.5 30 3.4 38.2
23:05 1022 30.18 852 25.16 21.3 70.4 30 3.4 38.2
23:10 1022 30.18 852 25.16 21.3 70.3 31 3.6 38.4
23:15 1022 30.18 852 25.16 21 69.8 31 3.6 38.5
23:20 1022 30.18 852 25.16 20.8 69.4 32 3.7 38.6
23:25 1022 30.18 852 25.16 20.7 69.2 32 3.6 38.6
23:30 1022 30.18 851 25.13 20.6 69 32 3.6 38.5
23:35 1022 30.18 851 25.13 20.6 69 32 3.6 38.6
23:40 1022 30.18 851 25.13 20.5 69 32 3.6 38.5
23:45 1022 30.18 851 25.13 20.5 68.9 33 3.7 38.6
23:50 1022 30.18 851 25.13 20.5 68.8 33 3.8 38.8
23:55 1022 30.18 851 25.13 20.4 68.7 33 3.8 38.8
24:00 1022 30.18 851 25.13 20.4 68.6 33 3.6 38.5